PWSweather.com
Personal Weather Stations
Station Observations
KCOGRAND2
Redlands, Southcamp Road & Dakota Circle, Grand Junction, CO 81507

Redlands, Southcamp Road & Dakota CircleGrand Junction, CO 81507

Lat: 39.055, Lon: -108.637

Elevation: 4870

Station Type: RadioShack WX200

High Low Average
Temperature 56.3°F13.5°C 39.6°F4.2°C 48.9°F9.4°C
Dew Point 23.0°F-5.0°C -1.5°F-18.6°C 18.3°F-7.6°C
Winds 13.0 mph 20.9 kmh Calm Calm 7.0 mph S11.3 kmh S
Wind Gusts 60.2 mph96.9 kmh -- 13.0 mph20.9 kmh
Humidity 46% 11% 34%
Pressure 24.77 in838.8 mb 24.63 in834.1 mb -
Precipitation 0.00 in0.0 mm - -
Hour Temp Dew Point Humidity Winds Wind Gusts Pressure Precip Precip Rate Daily Precip Total
12:03 AM 48.2°F9.0°C 19.0°F-7.2°C 31% 11.0 mph SE17.7 kmh SE 17.2 mph27.7 kmh 24.77 in838.8 mb 0.00 in0.0 mm 0.00 in/hr0.0 mm/hr 0.00 in0.0 mm
12:08 AM 48.0°F8.9°C 18.9°F-7.3°C 31% 10.0 mph SE16.1 kmh SE 19.9 mph32.0 kmh 24.77 in838.8 mb 0.00 in0.0 mm 0.00 in/hr0.0 mm/hr 0.00 in0.0 mm
12:13 AM 48.2°F9.0°C 19.0°F-7.2°C 31% 10.0 mph SE16.1 kmh SE 48.3 mph77.7 kmh 24.77 in838.8 mb 0.00 in0.0 mm 0.00 in/hr0.0 mm/hr 0.00 in0.0 mm
12:18 AM 48.2°F9.0°C 19.0°F-7.2°C 31% 10.0 mph SE16.1 kmh SE 17.2 mph27.7 kmh 24.77 in838.8 mb 0.00 in0.0 mm 0.00 in/hr0.0 mm/hr 0.00 in0.0 mm
12:23 AM 48.2°F9.0°C 19.0°F-7.2°C 31% 9.0 mph SE14.5 kmh SE 15.4 mph24.8 kmh 24.77 in838.8 mb 0.00 in0.0 mm 0.00 in/hr0.0 mm/hr 0.00 in0.0 mm
12:28 AM 48.4°F9.1°C 19.2°F-7.1°C 31% 8.0 mph SE12.9 kmh SE 13.4 mph21.6 kmh 24.77 in838.8 mb 0.00 in0.0 mm 0.00 in/hr0.0 mm/hr 0.00 in0.0 mm
12:33 AM 48.2°F9.0°C 19.0°F-7.2°C 31% 8.0 mph SSE12.9 kmh SSE 15.4 mph24.8 kmh 24.77 in838.8 mb 0.00 in0.0 mm 0.00 in/hr0.0 mm/hr 0.00 in0.0 mm
12:38 AM 48.2°F9.0°C 19.0°F-7.2°C 31% 8.0 mph SSE12.9 kmh SSE 16.8 mph27.0 kmh 24.77 in838.8 mb 0.00 in0.0 mm 0.00 in/hr0.0 mm/hr 0.00 in0.0 mm
12:43 AM 48.0°F8.9°C 18.9°F-7.3°C 31% 9.0 mph SE14.5 kmh SE 14.8 mph23.8 kmh 24.77 in838.8 mb 0.00 in0.0 mm 0.00 in/hr0.0 mm/hr 0.00 in0.0 mm
12:48 AM 47.8°F8.8°C 19.4°F-7.0°C 32% 8.0 mph SE12.9 kmh SE 13.4 mph21.6 kmh 24.77 in838.8 mb 0.00 in0.0 mm 0.00 in/hr0.0 mm/hr 0.00 in0.0 mm
12:53 AM 47.8°F8.8°C 19.4°F-7.0°C 32% 8.0 mph SE12.9 kmh SE 13.9 mph22.4 kmh 24.77 in838.8 mb 0.00 in0.0 mm 0.00 in/hr0.0 mm/hr 0.00 in0.0 mm
12:58 AM 47.7°F8.7°C 19.9°F-6.7°C 33% 8.0 mph SE12.9 kmh SE 10.5 mph16.9 kmh 24.77 in838.8 mb 0.00 in0.0 mm 0.00 in/hr0.0 mm/hr 0.00 in0.0 mm
01:03 AM 47.5°F8.6°C 20.5°F-6.4°C 34% 6.0 mph SSE9.7 kmh SSE 12.5 mph20.1 kmh 24.77 in838.8 mb 0.00 in0.0 mm 0.00 in/hr0.0 mm/hr 0.00 in0.0 mm
01:08 AM 47.5°F8.6°C 20.5°F-6.4°C 34% 6.0 mph SSE9.7 kmh SSE 10.1 mph16.3 kmh 24.77 in838.8 mb 0.00 in0.0 mm 0.00 in/hr0.0 mm/hr 0.00 in0.0 mm
01:13 AM 47.7°F8.7°C 20.7°F-6.3°C 34% 6.0 mph SSE9.7 kmh SSE 13.0 mph20.9 kmh 24.77 in838.8 mb 0.00 in0.0 mm 0.00 in/hr0.0 mm/hr 0.00 in0.0 mm
01:18 AM 47.7°F8.7°C 20.7°F-6.3°C 34% 6.0 mph SSE9.7 kmh SSE 10.5 mph16.9 kmh 24.77 in838.8 mb 0.00 in0.0 mm 0.00 in/hr0.0 mm/hr 0.00 in0.0 mm
01:23 AM 47.3°F8.5°C 21.0°F-6.1°C 35% 6.0 mph SSE9.7 kmh SSE 11.2 mph18.0 kmh 24.77 in838.8 mb 0.00 in0.0 mm 0.00 in/hr0.0 mm/hr 0.00 in0.0 mm
01:28 AM 47.1°F8.4°C 21.6°F-5.8°C 36% 7.0 mph SSE11.3 kmh SSE 11.2 mph18.0 kmh 24.77 in838.8 mb 0.00 in0.0 mm 0.00 in/hr0.0 mm/hr 0.00 in0.0 mm
01:33 AM 47.1°F8.4°C 22.3°F-5.4°C 37% 8.0 mph SE12.9 kmh SE 26.2 mph42.2 kmh 24.77 in838.8 mb 0.00 in0.0 mm 0.00 in/hr0.0 mm/hr 0.00 in0.0 mm
01:38 AM 46.9°F8.3°C 22.1°F-5.5°C 37% 8.0 mph SSE12.9 kmh SSE 13.0 mph20.9 kmh 24.77 in838.8 mb 0.00 in0.0 mm 0.00 in/hr0.0 mm/hr 0.00 in0.0 mm
01:43 AM 46.8°F8.2°C 21.9°F-5.6°C 37% 8.0 mph SSE12.9 kmh SSE 13.4 mph21.6 kmh 24.77 in838.8 mb 0.00 in0.0 mm 0.00 in/hr0.0 mm/hr 0.00 in0.0 mm
01:48 AM 46.8°F8.2°C 21.9°F-5.6°C 37% 8.0 mph SE12.9 kmh SE 13.9 mph22.4 kmh 24.77 in838.8 mb 0.00 in0.0 mm 0.00 in/hr0.0 mm/hr 0.00 in0.0 mm
01:54 AM 46.9°F8.3°C 22.1°F-5.5°C 37% 8.0 mph SE12.9 kmh SE 12.5 mph20.1 kmh 24.77 in838.8 mb 0.00 in0.0 mm 0.00 in/hr0.0 mm/hr 0.00 in0.0 mm
01:59 AM 46.9°F8.3°C 22.1°F-5.5°C 37% 8.0 mph SSE12.9 kmh SSE 12.5 mph20.1 kmh 24.75 in838.1 mb 0.00 in0.0 mm 0.00 in/hr0.0 mm/hr 0.00 in0.0 mm
02:04 AM 46.8°F8.2°C 21.9°F-5.6°C 37% 8.0 mph SSE12.9 kmh SSE 14.3 mph23.0 kmh 24.75 in838.1 mb 0.00 in0.0 mm 0.00 in/hr0.0 mm/hr 0.00 in0.0 mm
02:09 AM 46.4°F8.0°C 22.1°F-5.5°C 38% 8.0 mph SSE12.9 kmh SSE 11.6 mph18.7 kmh 24.75 in838.1 mb 0.00 in0.0 mm 0.00 in/hr0.0 mm/hr 0.00 in0.0 mm
02:14 AM 46.2°F7.9°C 22.1°F-5.5°C 38% 7.0 mph SSE11.3 kmh SSE 12.1 mph19.5 kmh 24.75 in838.1 mb 0.00 in0.0 mm 0.00 in/hr0.0 mm/hr 0.00 in0.0 mm
02:19 AM 46.0°F7.8°C 22.5°F-5.3°C 39% 6.0 mph SSE9.7 kmh SSE 11.2 mph18.0 kmh 24.75 in838.1 mb 0.00 in0.0 mm 0.00 in/hr0.0 mm/hr 0.00 in0.0 mm
02:24 AM 45.9°F7.7°C 22.3°F-5.4°C 39% 5.0 mph SSE8.0 kmh SSE 8.3 mph13.4 kmh 24.75 in838.1 mb 0.00 in0.0 mm 0.00 in/hr0.0 mm/hr 0.00 in0.0 mm
02:29 AM 45.9°F7.7°C 22.3°F-5.4°C 39% 5.0 mph SSE8.0 kmh SSE 7.4 mph11.9 kmh 24.75 in838.1 mb 0.00 in0.0 mm 0.00 in/hr0.0 mm/hr 0.00 in0.0 mm
02:34 AM 45.9°F7.7°C 22.3°F-5.4°C 39% 6.0 mph SSE9.7 kmh SSE 15.2 mph24.5 kmh 24.75 in838.1 mb 0.00 in0.0 mm 0.00 in/hr0.0 mm/hr 0.00 in0.0 mm
02:39 AM 45.7°F7.6°C 22.8°F-5.1°C 40% 6.0 mph SSE9.7 kmh SSE 11.6 mph18.7 kmh 24.75 in838.1 mb 0.00 in0.0 mm 0.00 in/hr0.0 mm/hr 0.00 in0.0 mm
02:44 AM 45.7°F7.6°C 22.8°F-5.1°C 40% 6.0 mph SSE9.7 kmh SSE 11.6 mph18.7 kmh 24.75 in838.1 mb 0.00 in0.0 mm 0.00 in/hr0.0 mm/hr 0.00 in0.0 mm
02:49 AM 45.5°F7.5°C 22.6°F-5.2°C 40% 6.0 mph SSE9.7 kmh SSE 11.0 mph17.7 kmh 24.75 in838.1 mb 0.00 in0.0 mm 0.00 in/hr0.0 mm/hr 0.00 in0.0 mm
02:54 AM 45.5°F7.5°C 22.6°F-5.2°C 40% 6.0 mph SSE9.7 kmh SSE 10.5 mph16.9 kmh 24.75 in838.1 mb 0.00 in0.0 mm 0.00 in/hr0.0 mm/hr 0.00 in0.0 mm
02:59 AM 45.3°F7.4°C 23.0°F-5.0°C 41% 5.0 mph SSE8.0 kmh SSE 8.7 mph14.0 kmh 24.75 in838.1 mb 0.00 in0.0 mm 0.00 in/hr0.0 mm/hr 0.00 in0.0 mm
03:09 AM 45.3°F7.4°C 23.0°F-5.0°C 41% 5.0 mph S8.0 kmh S 11.2 mph18.0 kmh 24.75 in838.1 mb 0.00 in0.0 mm 0.00 in/hr0.0 mm/hr 0.00 in0.0 mm
03:14 AM 45.5°F7.5°C 22.6°F-5.2°C 40% 6.0 mph SSE9.7 kmh SSE 13.0 mph20.9 kmh 24.75 in838.1 mb 0.00 in0.0 mm 0.00 in/hr0.0 mm/hr 0.00 in0.0 mm
03:19 AM 45.5°F7.5°C 22.6°F-5.2°C 40% 6.0 mph SSE9.7 kmh SSE 11.0 mph17.7 kmh 24.75 in838.1 mb 0.00 in0.0 mm 0.00 in/hr0.0 mm/hr 0.00 in0.0 mm
03:24 AM 45.9°F7.7°C 23.0°F-5.0°C 40% 7.0 mph S11.3 kmh S 12.1 mph19.5 kmh 24.75 in838.1 mb 0.00 in0.0 mm 0.00 in/hr0.0 mm/hr 0.00 in0.0 mm
03:29 AM 45.5°F7.5°C 22.6°F-5.2°C 40% 7.0 mph S11.3 kmh S 11.0 mph17.7 kmh 24.75 in838.1 mb 0.00 in0.0 mm 0.00 in/hr0.0 mm/hr 0.00 in0.0 mm
03:34 AM 45.3°F7.4°C 23.0°F-5.0°C 41% 6.0 mph SSE9.7 kmh SSE 9.6 mph15.4 kmh 24.75 in838.1 mb 0.00 in0.0 mm 0.00 in/hr0.0 mm/hr 0.00 in0.0 mm
03:39 AM 45.1°F7.3°C 22.8°F-5.1°C 41% 6.0 mph SSE9.7 kmh SSE 11.0 mph17.7 kmh 24.75 in838.1 mb 0.00 in0.0 mm 0.00 in/hr0.0 mm/hr 0.00 in0.0 mm
03:44 AM 45.1°F7.3°C 22.8°F-5.1°C 41% 5.0 mph SSE8.0 kmh SSE 8.3 mph13.4 kmh 24.75 in838.1 mb 0.00 in0.0 mm 0.00 in/hr0.0 mm/hr 0.00 in0.0 mm
03:49 AM 45.1°F7.3°C 22.8°F-5.1°C 41% 6.0 mph SSE9.7 kmh SSE 10.1 mph16.3 kmh 24.75 in838.1 mb 0.00 in0.0 mm 0.00 in/hr0.0 mm/hr 0.00 in0.0 mm
03:54 AM 45.0°F7.2°C 22.6°F-5.2°C 41% 6.0 mph SSE9.7 kmh SSE 60.2 mph96.9 kmh 24.75 in838.1 mb 0.00 in0.0 mm 0.00 in/hr0.0 mm/hr 0.00 in0.0 mm
03:59 AM 45.0°F7.2°C 22.6°F-5.2°C 41% 6.0 mph SSE9.7 kmh SSE 9.2 mph14.8 kmh 24.75 in838.1 mb 0.00 in0.0 mm 0.00 in/hr0.0 mm/hr 0.00 in0.0 mm
04:04 AM 44.8°F7.1°C 22.5°F-5.3°C 41% 6.0 mph SSE9.7 kmh SSE 20.6 mph33.2 kmh 24.75 in838.1 mb 0.00 in0.0 mm 0.00 in/hr0.0 mm/hr 0.00 in0.0 mm
04:09 AM 44.8°F7.1°C 21.9°F-5.6°C 40% 6.0 mph SSE9.7 kmh SSE 23.7 mph38.1 kmh 24.75 in838.1 mb 0.00 in0.0 mm 0.00 in/hr0.0 mm/hr 0.00 in0.0 mm
04:14 AM 44.6°F7.0°C 21.7°F-5.7°C 40% 6.0 mph SE9.7 kmh SE 9.6 mph15.4 kmh 24.72 in837.1 mb 0.00 in0.0 mm 0.00 in/hr0.0 mm/hr 0.00 in0.0 mm
04:19 AM 44.4°F6.9°C 21.6°F-5.8°C 40% 7.0 mph SE11.3 kmh SE 40.7 mph65.5 kmh 24.72 in837.1 mb 0.00 in0.0 mm 0.00 in/hr0.0 mm/hr 0.00 in0.0 mm
04:24 AM 44.6°F7.0°C 21.2°F-6.0°C 39% 6.0 mph SSE9.7 kmh SSE 7.8 mph12.6 kmh 24.72 in837.1 mb 0.00 in0.0 mm 0.00 in/hr0.0 mm/hr 0.00 in0.0 mm
04:29 AM 44.4°F6.9°C 21.0°F-6.1°C 39% 5.0 mph SSW8.0 kmh SSW 7.4 mph11.9 kmh 24.72 in837.1 mb 0.00 in0.0 mm 0.00 in/hr0.0 mm/hr 0.00 in0.0 mm
04:34 AM 44.2°F6.8°C 20.8°F-6.2°C 39% 4.0 mph SW6.4 kmh SW 5.8 mph9.3 kmh 24.72 in837.1 mb 0.00 in0.0 mm 0.00 in/hr0.0 mm/hr 0.00 in0.0 mm
04:39 AM 44.1°F6.7°C 20.7°F-6.3°C 39% 4.0 mph SW6.4 kmh SW 6.9 mph11.1 kmh 24.72 in837.1 mb 0.00 in0.0 mm 0.00 in/hr0.0 mm/hr 0.00 in0.0 mm
04:44 AM 43.9°F6.6°C 21.2°F-6.0°C 40% 2.0 mph SW3.2 kmh SW 4.9 mph7.9 kmh 24.72 in837.1 mb 0.00 in0.0 mm 0.00 in/hr0.0 mm/hr 0.00 in0.0 mm
04:49 AM 43.5°F6.4°C 20.8°F-6.2°C 40% Calm Calm 2.7 mph4.3 kmh 24.72 in837.1 mb 0.00 in0.0 mm 0.00 in/hr0.0 mm/hr 0.00 in0.0 mm
04:55 AM 43.3°F6.3°C 20.7°F-6.3°C 40% Calm Calm 3.6 mph5.8 kmh 24.72 in837.1 mb 0.00 in0.0 mm 0.00 in/hr0.0 mm/hr 0.00 in0.0 mm
05:00 AM 43.0°F6.1°C 20.8°F-6.2°C 41% Calm Calm 2.7 mph4.3 kmh 24.72 in837.1 mb 0.00 in0.0 mm 0.00 in/hr0.0 mm/hr 0.00 in0.0 mm
05:05 AM 42.8°F6.0°C 20.7°F-6.3°C 41% Calm Calm -- 24.72 in837.1 mb 0.00 in0.0 mm 0.00 in/hr0.0 mm/hr 0.00 in0.0 mm
05:10 AM 43.0°F6.1°C 20.8°F-6.2°C 41% 1.0 mph SW1.6 kmh SW 4.0 mph6.4 kmh 24.72 in837.1 mb 0.00 in0.0 mm 0.00 in/hr0.0 mm/hr 0.00 in0.0 mm
05:15 AM 42.6°F5.9°C 20.7°F-6.3°C 41% 1.0 mph SW1.6 kmh SW 3.6 mph5.8 kmh 24.72 in837.1 mb 0.00 in0.0 mm 0.00 in/hr0.0 mm/hr 0.00 in0.0 mm
05:20 AM 42.3°F5.7°C 20.3°F-6.5°C 41% Calm Calm 4.0 mph6.4 kmh 24.72 in837.1 mb 0.00 in0.0 mm 0.00 in/hr0.0 mm/hr 0.00 in0.0 mm
05:25 AM 42.1°F5.6°C 20.1°F-6.6°C 41% 2.0 mph SW3.2 kmh SW 4.9 mph7.9 kmh 24.72 in837.1 mb 0.00 in0.0 mm 0.00 in/hr0.0 mm/hr 0.00 in0.0 mm
05:30 AM 41.9°F5.5°C 20.5°F-6.4°C 42% 4.0 mph SW6.4 kmh SW 4.5 mph7.2 kmh 24.72 in837.1 mb 0.00 in0.0 mm 0.00 in/hr0.0 mm/hr 0.00 in0.0 mm
05:35 AM 40.6°F4.8°C 19.4°F-7.0°C 42% 4.0 mph SSW6.4 kmh SSW 6.9 mph11.1 kmh 24.72 in837.1 mb 0.00 in0.0 mm 0.00 in/hr0.0 mm/hr 0.00 in0.0 mm
05:40 AM 40.1°F4.5°C 19.9°F-6.7°C 44% 5.0 mph SSE8.0 kmh SSE 7.4 mph11.9 kmh 24.72 in837.1 mb 0.00 in0.0 mm 0.00 in/hr0.0 mm/hr 0.00 in0.0 mm
05:45 AM 39.9°F4.4°C 20.3°F-6.5°C 45% 6.0 mph SE9.7 kmh SE 7.8 mph12.6 kmh 24.72 in837.1 mb 0.00 in0.0 mm 0.00 in/hr0.0 mm/hr 0.00 in0.0 mm
05:50 AM 39.7°F4.3°C 20.7°F-6.3°C 46% 5.0 mph SE8.0 kmh SE 6.3 mph10.1 kmh 24.72 in837.1 mb 0.00 in0.0 mm 0.00 in/hr0.0 mm/hr 0.00 in0.0 mm
05:55 AM 39.7°F4.3°C 20.7°F-6.3°C 46% 3.0 mph SSE4.8 kmh SSE 4.0 mph6.4 kmh 24.69 in836.1 mb 0.00 in0.0 mm 0.00 in/hr0.0 mm/hr 0.00 in0.0 mm
06:00 AM 40.3°F4.6°C 21.2°F-6.0°C 46% 2.0 mph SSE3.2 kmh SSE 5.4 mph8.7 kmh 24.69 in836.1 mb 0.00 in0.0 mm 0.00 in/hr0.0 mm/hr 0.00 in0.0 mm
06:05 AM 40.6°F4.8°C 21.6°F-5.8°C 46% 2.0 mph SE3.2 kmh SE 4.9 mph7.9 kmh 24.69 in836.1 mb 0.00 in0.0 mm 0.00 in/hr0.0 mm/hr 0.00 in0.0 mm
06:10 AM 40.8°F4.9°C 21.7°F-5.7°C 46% 3.0 mph SE4.8 kmh SE 4.9 mph7.9 kmh 24.69 in836.1 mb 0.00 in0.0 mm 0.00 in/hr0.0 mm/hr 0.00 in0.0 mm
06:15 AM 41.0°F5.0°C 21.4°F-5.9°C 45% 3.0 mph SE4.8 kmh SE 4.0 mph6.4 kmh 24.69 in836.1 mb 0.00 in0.0 mm 0.00 in/hr0.0 mm/hr 0.00 in0.0 mm
06:20 AM 41.5°F5.3°C 21.2°F-6.0°C 44% 3.0 mph SE4.8 kmh SE 5.4 mph8.7 kmh 24.69 in836.1 mb 0.00 in0.0 mm 0.00 in/hr0.0 mm/hr 0.00 in0.0 mm
06:25 AM 40.1°F4.5°C 19.9°F-6.7°C 44% 5.0 mph SE8.0 kmh SE 6.9 mph11.1 kmh 24.69 in836.1 mb 0.00 in0.0 mm 0.00 in/hr0.0 mm/hr 0.00 in0.0 mm
06:30 AM 39.6°F4.2°C 19.9°F-6.7°C 45% 5.0 mph SE8.0 kmh SE 14.8 mph23.8 kmh 24.69 in836.1 mb 0.00 in0.0 mm 0.00 in/hr0.0 mm/hr 0.00 in0.0 mm
06:35 AM 40.1°F4.5°C 21.0°F-6.1°C 46% 5.0 mph SE8.0 kmh SE 8.3 mph13.4 kmh 24.69 in836.1 mb 0.00 in0.0 mm 0.00 in/hr0.0 mm/hr 0.00 in0.0 mm
06:40 AM 42.1°F5.6°C 21.2°F-6.0°C 43% 6.0 mph SE9.7 kmh SE 9.6 mph15.4 kmh 24.69 in836.1 mb 0.00 in0.0 mm 0.00 in/hr0.0 mm/hr 0.00 in0.0 mm
06:46 AM 41.9°F5.5°C 19.9°F-6.7°C 41% 6.0 mph SSE9.7 kmh SSE 8.3 mph13.4 kmh 24.69 in836.1 mb 0.00 in0.0 mm 0.00 in/hr0.0 mm/hr 0.00 in0.0 mm
06:51 AM 41.5°F5.3°C 19.6°F-6.9°C 41% 5.0 mph SE8.0 kmh SE 6.7 mph10.8 kmh 24.69 in836.1 mb 0.00 in0.0 mm 0.00 in/hr0.0 mm/hr 0.00 in0.0 mm
06:56 AM 41.5°F5.3°C 19.6°F-6.9°C 41% 5.0 mph SE8.0 kmh SE 6.7 mph10.8 kmh 24.69 in836.1 mb 0.00 in0.0 mm 0.00 in/hr0.0 mm/hr 0.00 in0.0 mm
07:01 AM 41.9°F5.5°C 19.4°F-7.0°C 40% 5.0 mph SE8.0 kmh SE 6.7 mph10.8 kmh 24.69 in836.1 mb 0.00 in0.0 mm 0.00 in/hr0.0 mm/hr 0.00 in0.0 mm
07:06 AM 41.9°F5.5°C 19.4°F-7.0°C 40% 4.0 mph SE6.4 kmh SE 6.3 mph10.1 kmh 24.69 in836.1 mb 0.00 in0.0 mm 0.00 in/hr0.0 mm/hr 0.00 in0.0 mm
07:11 AM 42.3°F5.7°C 19.0°F-7.2°C 39% 4.0 mph SSE6.4 kmh SSE 5.4 mph8.7 kmh 24.69 in836.1 mb 0.00 in0.0 mm 0.00 in/hr0.0 mm/hr 0.00 in0.0 mm
07:16 AM 42.4°F5.8°C 19.2°F-7.1°C 39% 3.0 mph SSE4.8 kmh SSE 6.9 mph11.1 kmh 24.69 in836.1 mb 0.00 in0.0 mm 0.00 in/hr0.0 mm/hr 0.00 in0.0 mm
07:21 AM 42.4°F5.8°C 18.7°F-7.4°C 38% 3.0 mph SE4.8 kmh SE 5.8 mph9.3 kmh 24.69 in836.1 mb 0.00 in0.0 mm 0.00 in/hr0.0 mm/hr 0.00 in0.0 mm
07:26 AM 43.0°F6.1°C 19.2°F-7.1°C 38% 3.0 mph SE4.8 kmh SE 5.8 mph9.3 kmh 24.69 in836.1 mb 0.00 in0.0 mm 0.00 in/hr0.0 mm/hr 0.00 in0.0 mm
07:31 AM 43.3°F6.3°C 18.9°F-7.3°C 37% 4.0 mph SE6.4 kmh SE 7.4 mph11.9 kmh 24.69 in836.1 mb 0.00 in0.0 mm 0.00 in/hr0.0 mm/hr 0.00 in0.0 mm
07:36 AM 43.9°F6.6°C 18.0°F-7.8°C 35% 5.0 mph E8.0 kmh E 39.8 mph64.1 kmh 24.69 in836.1 mb 0.00 in0.0 mm 0.00 in/hr0.0 mm/hr 0.00 in0.0 mm
07:41 AM 43.3°F6.3°C 18.9°F-7.3°C 37% 4.0 mph SE6.4 kmh SE 9.6 mph15.4 kmh 24.69 in836.1 mb 0.00 in0.0 mm 0.00 in/hr0.0 mm/hr 0.00 in0.0 mm
07:46 AM 43.5°F6.4°C 19.6°F-6.9°C 38% 4.0 mph SSE6.4 kmh SSE 10.1 mph16.3 kmh 24.69 in836.1 mb 0.00 in0.0 mm 0.00 in/hr0.0 mm/hr 0.00 in0.0 mm
07:51 AM 43.9°F6.6°C 19.4°F-7.0°C 37% 6.0 mph ESE9.7 kmh ESE 9.2 mph14.8 kmh 24.69 in836.1 mb 0.00 in0.0 mm 0.00 in/hr0.0 mm/hr 0.00 in0.0 mm
07:56 AM 43.7°F6.5°C 19.2°F-7.1°C 37% 6.0 mph ESE9.7 kmh ESE 9.6 mph15.4 kmh 24.69 in836.1 mb 0.00 in0.0 mm 0.00 in/hr0.0 mm/hr 0.00 in0.0 mm
08:01 AM 44.1°F6.7°C 20.1°F-6.6°C 38% 6.0 mph ESE9.7 kmh ESE 7.4 mph11.9 kmh 24.69 in836.1 mb 0.00 in0.0 mm 0.00 in/hr0.0 mm/hr 0.00 in0.0 mm
08:06 AM 44.8°F7.1°C 20.1°F-6.6°C 37% 6.0 mph ESE9.7 kmh ESE 11.2 mph18.0 kmh 24.69 in836.1 mb 0.00 in0.0 mm 0.00 in/hr0.0 mm/hr 0.00 in0.0 mm
08:12 AM 45.7°F7.6°C 18.9°F-7.3°C 34% 6.0 mph SE9.7 kmh SE 9.6 mph15.4 kmh 24.69 in836.1 mb 0.00 in0.0 mm 0.00 in/hr0.0 mm/hr 0.00 in0.0 mm
08:17 AM 46.2°F7.9°C 18.0°F-7.8°C 32% 8.0 mph SE12.9 kmh SE 12.5 mph20.1 kmh 24.69 in836.1 mb 0.00 in0.0 mm 0.00 in/hr0.0 mm/hr 0.00 in0.0 mm
08:22 AM 46.8°F8.2°C 18.5°F-7.5°C 32% 8.0 mph SE12.9 kmh SE 12.1 mph19.5 kmh 24.69 in836.1 mb 0.00 in0.0 mm 0.00 in/hr0.0 mm/hr 0.00 in0.0 mm
08:27 AM 47.3°F8.5°C 18.1°F-7.7°C 31% 7.0 mph SE11.3 kmh SE 10.1 mph16.3 kmh 24.66 in835.1 mb 0.00 in0.0 mm 0.00 in/hr0.0 mm/hr 0.00 in0.0 mm
08:32 AM 48.6°F9.2°C 19.4°F-7.0°C 31% 6.0 mph SE9.7 kmh SE 12.5 mph20.1 kmh 24.66 in835.1 mb 0.00 in0.0 mm 0.00 in/hr0.0 mm/hr 0.00 in0.0 mm
08:37 AM 49.8°F9.9°C 19.6°F-6.9°C 30% 7.0 mph SE11.3 kmh SE 13.0 mph20.9 kmh 24.66 in835.1 mb 0.00 in0.0 mm 0.00 in/hr0.0 mm/hr 0.00 in0.0 mm
08:42 AM 48.4°F9.1°C 18.3°F-7.6°C 30% 8.0 mph SE12.9 kmh SE 13.0 mph20.9 kmh 24.66 in835.1 mb 0.00 in0.0 mm 0.00 in/hr0.0 mm/hr 0.00 in0.0 mm
08:47 AM 49.1°F9.5°C 19.8°F-6.8°C 31% 7.0 mph E11.3 kmh E 11.0 mph17.7 kmh 24.66 in835.1 mb 0.00 in0.0 mm 0.00 in/hr0.0 mm/hr 0.00 in0.0 mm
08:52 AM 49.3°F9.6°C 19.2°F-7.1°C 30% 6.0 mph E9.7 kmh E 11.6 mph18.7 kmh 24.66 in835.1 mb 0.00 in0.0 mm 0.00 in/hr0.0 mm/hr 0.00 in0.0 mm
08:57 AM 49.1°F9.5°C 19.0°F-7.2°C 30% 8.0 mph E12.9 kmh E 13.4 mph21.6 kmh 24.66 in835.1 mb 0.00 in0.0 mm 0.00 in/hr0.0 mm/hr 0.00 in0.0 mm
09:02 AM 49.5°F9.7°C 19.4°F-7.0°C 30% 8.0 mph E12.9 kmh E 11.6 mph18.7 kmh 24.66 in835.1 mb 0.00 in0.0 mm 0.00 in/hr0.0 mm/hr 0.00 in0.0 mm
09:07 AM 50.0°F10.0°C 19.0°F-7.2°C 29% 8.0 mph E12.9 kmh E 11.2 mph18.0 kmh 24.66 in835.1 mb 0.00 in0.0 mm 0.00 in/hr0.0 mm/hr 0.00 in0.0 mm
09:17 AM 50.4°F10.2°C 19.4°F-7.0°C 29% 9.0 mph ESE14.5 kmh ESE 12.5 mph20.1 kmh 24.66 in835.1 mb 0.00 in0.0 mm 0.00 in/hr0.0 mm/hr 0.00 in0.0 mm
09:22 AM 50.0°F10.0°C 18.1°F-7.7°C 28% 10.0 mph ESE16.1 kmh ESE 15.2 mph24.5 kmh 24.66 in835.1 mb 0.00 in0.0 mm 0.00 in/hr0.0 mm/hr 0.00 in0.0 mm
09:27 AM 50.0°F10.0°C 18.1°F-7.7°C 28% 10.0 mph ESE16.1 kmh ESE 14.3 mph23.0 kmh 24.66 in835.1 mb 0.00 in0.0 mm 0.00 in/hr0.0 mm/hr 0.00 in0.0 mm
09:33 AM 50.4°F10.2°C 18.5°F-7.5°C 28% 9.0 mph ESE14.5 kmh ESE 14.3 mph23.0 kmh 24.66 in835.1 mb 0.00 in0.0 mm 0.00 in/hr0.0 mm/hr 0.00 in0.0 mm
09:38 AM 50.5°F10.3°C 17.8°F-7.9°C 27% 10.0 mph E16.1 kmh E 14.8 mph23.8 kmh 24.66 in835.1 mb 0.00 in0.0 mm 0.00 in/hr0.0 mm/hr 0.00 in0.0 mm
09:43 AM 50.4°F10.2°C 17.6°F-8.0°C 27% 10.0 mph E16.1 kmh E 34.7 mph55.8 kmh 24.63 in834.1 mb 0.00 in0.0 mm 0.00 in/hr0.0 mm/hr 0.00 in0.0 mm
09:48 AM 50.9°F10.5°C 18.1°F-7.7°C 27% 9.0 mph E14.5 kmh E 14.8 mph23.8 kmh 24.63 in834.1 mb 0.00 in0.0 mm 0.00 in/hr0.0 mm/hr 0.00 in0.0 mm
09:53 AM 51.3°F10.7°C 18.5°F-7.5°C 27% 9.0 mph E14.5 kmh E 35.1 mph56.5 kmh 24.63 in834.1 mb 0.00 in0.0 mm 0.00 in/hr0.0 mm/hr 0.00 in0.0 mm
09:58 AM 51.6°F10.9°C 17.8°F-7.9°C 26% 9.0 mph E14.5 kmh E 22.4 mph36.0 kmh 24.63 in834.1 mb 0.00 in0.0 mm 0.00 in/hr0.0 mm/hr 0.00 in0.0 mm
10:03 AM 52.9°F11.6°C 18.9°F-7.3°C 26% 8.0 mph E12.9 kmh E 11.2 mph18.0 kmh 24.63 in834.1 mb 0.00 in0.0 mm 0.00 in/hr0.0 mm/hr 0.00 in0.0 mm
10:08 AM 51.6°F10.9°C 17.8°F-7.9°C 26% 8.0 mph E12.9 kmh E 12.1 mph19.5 kmh 24.63 in834.1 mb 0.00 in0.0 mm 0.00 in/hr0.0 mm/hr 0.00 in0.0 mm
10:13 AM 52.0°F11.1°C 18.1°F-7.7°C 26% 8.0 mph ESE12.9 kmh ESE 12.1 mph19.5 kmh 24.63 in834.1 mb 0.00 in0.0 mm 0.00 in/hr0.0 mm/hr 0.00 in0.0 mm
10:18 AM 52.0°F11.1°C 18.1°F-7.7°C 26% 8.0 mph E12.9 kmh E 11.6 mph18.7 kmh 24.63 in834.1 mb 0.00 in0.0 mm 0.00 in/hr0.0 mm/hr 0.00 in0.0 mm
10:23 AM 51.6°F10.9°C 17.8°F-7.9°C 26% 8.0 mph E12.9 kmh E 15.2 mph24.5 kmh 24.63 in834.1 mb 0.00 in0.0 mm 0.00 in/hr0.0 mm/hr 0.00 in0.0 mm
10:28 AM 52.2°F11.2°C 18.3°F-7.6°C 26% 7.0 mph E11.3 kmh E 12.5 mph20.1 kmh 24.63 in834.1 mb 0.00 in0.0 mm 0.00 in/hr0.0 mm/hr 0.00 in0.0 mm
10:33 AM 53.2°F11.8°C 19.2°F-7.1°C 26% 7.0 mph NE11.3 kmh NE 15.2 mph24.5 kmh 24.63 in834.1 mb 0.00 in0.0 mm 0.00 in/hr0.0 mm/hr 0.00 in0.0 mm
10:38 AM 52.9°F11.6°C 12.9°F-10.6°C 20% 6.0 mph NE9.7 kmh NE 12.5 mph20.1 kmh 24.63 in834.1 mb 0.00 in0.0 mm 0.00 in/hr0.0 mm/hr 0.00 in0.0 mm
10:43 AM 54.0°F12.2°C 7.3°F-13.7°C 15% 8.0 mph ENE12.9 kmh ENE 17.2 mph27.7 kmh 24.63 in834.1 mb 0.00 in0.0 mm 0.00 in/hr0.0 mm/hr 0.00 in0.0 mm
10:48 AM 54.5°F12.5°C -5537.2°C - 10.0 mph SE16.1 kmh SE 17.2 mph27.7 kmh 24.63 in834.1 mb 0.00 in0.0 mm 0.00 in/hr0.0 mm/hr 0.00 in0.0 mm
10:53 AM 53.2°F11.8°C -5537.2°C - 11.0 mph S17.7 kmh S 20.6 mph33.2 kmh 24.63 in834.1 mb 0.00 in0.0 mm 0.00 in/hr0.0 mm/hr 0.00 in0.0 mm
10:58 AM 53.2°F11.8°C 3.7°F-15.7°C 13% 7.0 mph SW11.3 kmh SW 6.7 mph10.8 kmh 24.63 in834.1 mb 0.00 in0.0 mm 0.00 in/hr0.0 mm/hr 0.00 in0.0 mm
11:03 AM 53.2°F11.8°C -5537.2°C - 4.0 mph S6.4 kmh S 15.9 mph25.6 kmh 24.63 in834.1 mb 0.00 in0.0 mm 0.00 in/hr0.0 mm/hr 0.00 in0.0 mm
11:08 AM 53.8°F12.1°C -5537.2°C - 7.0 mph SSE11.3 kmh SSE 16.8 mph27.0 kmh 24.63 in834.1 mb 0.00 in0.0 mm 0.00 in/hr0.0 mm/hr 0.00 in0.0 mm
11:13 AM 53.4°F11.9°C -5537.2°C - 8.0 mph S12.9 kmh S 15.2 mph24.5 kmh 24.63 in834.1 mb 0.00 in0.0 mm 0.00 in/hr0.0 mm/hr 0.00 in0.0 mm
11:18 AM 54.0°F12.2°C -5537.2°C - 8.0 mph S12.9 kmh S 15.4 mph24.8 kmh 24.63 in834.1 mb 0.00 in0.0 mm 0.00 in/hr0.0 mm/hr 0.00 in0.0 mm
11:23 AM 53.2°F11.8°C -5537.2°C - 9.0 mph S14.5 kmh S 15.2 mph24.5 kmh 24.63 in834.1 mb 0.00 in0.0 mm 0.00 in/hr0.0 mm/hr 0.00 in0.0 mm
11:28 AM 54.0°F12.2°C -5537.2°C - 9.0 mph S14.5 kmh S 13.9 mph22.4 kmh 24.63 in834.1 mb 0.00 in0.0 mm 0.00 in/hr0.0 mm/hr 0.00 in0.0 mm
11:33 AM 53.8°F12.1°C -5537.2°C - 8.0 mph S12.9 kmh S 11.6 mph18.7 kmh 24.63 in834.1 mb 0.00 in0.0 mm 0.00 in/hr0.0 mm/hr 0.00 in0.0 mm
11:38 AM 53.8°F12.1°C -5537.2°C - 7.0 mph S11.3 kmh S 13.0 mph20.9 kmh 24.63 in834.1 mb 0.00 in0.0 mm 0.00 in/hr0.0 mm/hr 0.00 in0.0 mm
11:43 AM 54.3°F12.4°C -5537.2°C - 9.0 mph S14.5 kmh S 14.8 mph23.8 kmh 24.66 in835.1 mb 0.00 in0.0 mm 0.00 in/hr0.0 mm/hr 0.00 in0.0 mm
11:48 AM 54.3°F12.4°C -5537.2°C - 10.0 mph SSW16.1 kmh SSW 14.8 mph23.8 kmh 24.66 in835.1 mb 0.00 in0.0 mm 0.00 in/hr0.0 mm/hr 0.00 in0.0 mm
11:53 AM 54.3°F12.4°C -5537.2°C - 8.0 mph S12.9 kmh S 10.1 mph16.3 kmh 24.66 in835.1 mb 0.00 in0.0 mm 0.00 in/hr0.0 mm/hr 0.00 in0.0 mm
11:58 AM 55.4°F13.0°C -5537.2°C - 7.0 mph SSW11.3 kmh SSW 13.0 mph20.9 kmh 24.63 in834.1 mb 0.00 in0.0 mm 0.00 in/hr0.0 mm/hr 0.00 in0.0 mm
12:03 PM 54.7°F12.6°C -5537.2°C - 7.0 mph SSW11.3 kmh SSW 16.8 mph27.0 kmh 24.63 in834.1 mb 0.00 in0.0 mm 0.00 in/hr0.0 mm/hr 0.00 in0.0 mm
12:08 PM 55.6°F13.1°C -5537.2°C - 7.0 mph SW11.3 kmh SW 12.5 mph20.1 kmh 24.63 in834.1 mb 0.00 in0.0 mm 0.00 in/hr0.0 mm/hr 0.00 in0.0 mm
12:13 PM 55.4°F13.0°C -5537.2°C - 7.0 mph SW11.3 kmh SW 12.5 mph20.1 kmh 24.63 in834.1 mb 0.00 in0.0 mm 0.00 in/hr0.0 mm/hr 0.00 in0.0 mm
12:18 PM 54.7°F12.6°C -5537.2°C - 8.0 mph SW12.9 kmh SW 19.9 mph32.0 kmh 24.63 in834.1 mb 0.00 in0.0 mm 0.00 in/hr0.0 mm/hr 0.00 in0.0 mm
12:24 PM 55.2°F12.9°C -5537.2°C - 8.0 mph SSW12.9 kmh SSW 11.6 mph18.7 kmh 24.63 in834.1 mb 0.00 in0.0 mm 0.00 in/hr0.0 mm/hr 0.00 in0.0 mm
12:29 PM 55.2°F12.9°C -5537.2°C - 8.0 mph S12.9 kmh S 17.2 mph27.7 kmh 24.63 in834.1 mb 0.00 in0.0 mm 0.00 in/hr0.0 mm/hr 0.00 in0.0 mm
12:34 PM 55.0°F12.8°C -5537.2°C - 10.0 mph S16.1 kmh S 17.7 mph28.5 kmh 24.63 in834.1 mb 0.00 in0.0 mm 0.00 in/hr0.0 mm/hr 0.00 in0.0 mm
12:39 PM 55.8°F13.2°C -5537.2°C - 10.0 mph S16.1 kmh S 19.0 mph30.6 kmh 24.63 in834.1 mb 0.00 in0.0 mm 0.00 in/hr0.0 mm/hr 0.00 in0.0 mm
12:44 PM 55.6°F13.1°C -5537.2°C - 10.0 mph S16.1 kmh S 18.6 mph29.9 kmh 24.63 in834.1 mb 0.00 in0.0 mm 0.00 in/hr0.0 mm/hr 0.00 in0.0 mm
12:49 PM 55.4°F13.0°C -5537.2°C - 9.0 mph S14.5 kmh S 14.3 mph23.0 kmh 24.63 in834.1 mb 0.00 in0.0 mm 0.00 in/hr0.0 mm/hr 0.00 in0.0 mm
12:59 PM 55.2°F12.9°C -5537.2°C - 11.0 mph SW17.7 kmh SW 15.9 mph25.6 kmh 24.63 in834.1 mb 0.00 in0.0 mm 0.00 in/hr0.0 mm/hr 0.00 in0.0 mm
01:04 PM 54.3°F12.4°C -5537.2°C - 10.0 mph SW16.1 kmh SW 17.7 mph28.5 kmh 24.63 in834.1 mb 0.00 in0.0 mm 0.00 in/hr0.0 mm/hr 0.00 in0.0 mm
01:09 PM 54.7°F12.6°C -5537.2°C - 9.0 mph SW14.5 kmh SW 11.6 mph18.7 kmh 24.63 in834.1 mb 0.00 in0.0 mm 0.00 in/hr0.0 mm/hr 0.00 in0.0 mm
01:14 PM 54.5°F12.5°C -5537.2°C - 7.0 mph SSW11.3 kmh SSW 10.5 mph16.9 kmh 24.63 in834.1 mb 0.00 in0.0 mm 0.00 in/hr0.0 mm/hr 0.00 in0.0 mm
01:19 PM 54.0°F12.2°C -5537.2°C - 6.0 mph SW9.7 kmh SW 12.1 mph19.5 kmh 24.63 in834.1 mb 0.00 in0.0 mm 0.00 in/hr0.0 mm/hr 0.00 in0.0 mm
01:24 PM 53.6°F12.0°C -5537.2°C - 7.0 mph SW11.3 kmh SW 17.7 mph28.5 kmh 24.63 in834.1 mb 0.00 in0.0 mm 0.00 in/hr0.0 mm/hr 0.00 in0.0 mm
01:29 PM 53.2°F11.8°C -5537.2°C - 9.0 mph SW14.5 kmh SW 25.3 mph40.7 kmh 24.63 in834.1 mb 0.00 in0.0 mm 0.00 in/hr0.0 mm/hr 0.00 in0.0 mm
01:34 PM 54.1°F12.3°C -5537.2°C - 10.0 mph SW16.1 kmh SW 24.2 mph38.9 kmh 24.63 in834.1 mb 0.00 in0.0 mm 0.00 in/hr0.0 mm/hr 0.00 in0.0 mm
01:39 PM 53.4°F11.9°C -5537.2°C - 12.0 mph SSW19.3 kmh SSW 20.1 mph32.3 kmh 24.63 in834.1 mb 0.00 in0.0 mm 0.00 in/hr0.0 mm/hr 0.00 in0.0 mm
01:44 PM 52.9°F11.6°C -5537.2°C - 13.0 mph S20.9 kmh S 19.0 mph30.6 kmh 24.63 in834.1 mb 0.00 in0.0 mm 0.00 in/hr0.0 mm/hr 0.00 in0.0 mm
01:49 PM 52.7°F11.5°C -5537.2°C - 12.0 mph SSW19.3 kmh SSW 21.5 mph34.6 kmh 24.63 in834.1 mb 0.00 in0.0 mm 0.00 in/hr0.0 mm/hr 0.00 in0.0 mm
01:54 PM 52.5°F11.4°C -0.4°F-18.0°C 11% 10.0 mph S16.1 kmh S 13.9 mph22.4 kmh 24.63 in834.1 mb 0.00 in0.0 mm 0.00 in/hr0.0 mm/hr 0.00 in0.0 mm
01:59 PM 52.3°F11.3°C -0.6°F-18.1°C 11% 9.0 mph SSW14.5 kmh SSW 17.2 mph27.7 kmh 24.66 in835.1 mb 0.00 in0.0 mm 0.00 in/hr0.0 mm/hr 0.00 in0.0 mm
02:04 PM 51.8°F11.0°C -0.9°F-18.3°C 11% 11.0 mph SW17.7 kmh SW 20.1 mph32.3 kmh 24.66 in835.1 mb 0.00 in0.0 mm 0.00 in/hr0.0 mm/hr 0.00 in0.0 mm
02:09 PM 51.1°F10.6°C -1.5°F-18.6°C 11% 12.0 mph SW19.3 kmh SW 19.5 mph31.4 kmh 24.66 in835.1 mb 0.00 in0.0 mm 0.00 in/hr0.0 mm/hr 0.00 in0.0 mm
02:14 PM 51.3°F10.7°C -1.5°F-18.6°C 11% 11.0 mph SW17.7 kmh SW 16.3 mph26.2 kmh 24.66 in835.1 mb 0.00 in0.0 mm 0.00 in/hr0.0 mm/hr 0.00 in0.0 mm
02:19 PM 51.6°F10.9°C -1.1°F-18.4°C 11% 10.0 mph SW16.1 kmh SW 14.3 mph23.0 kmh 24.66 in835.1 mb 0.00 in0.0 mm 0.00 in/hr0.0 mm/hr 0.00 in0.0 mm
02:24 PM 51.6°F10.9°C -1.1°F-18.4°C 11% 10.0 mph SSW16.1 kmh SSW 15.4 mph24.8 kmh 24.66 in835.1 mb 0.00 in0.0 mm 0.00 in/hr0.0 mm/hr 0.00 in0.0 mm
02:29 PM 51.6°F10.9°C -1.1°F-18.4°C 11% 10.0 mph S16.1 kmh S 15.9 mph25.6 kmh 24.66 in835.1 mb 0.00 in0.0 mm 0.00 in/hr0.0 mm/hr 0.00 in0.0 mm
02:34 PM 52.0°F11.1°C 2.7°F-16.3°C 13% 10.0 mph SSW16.1 kmh SSW 15.2 mph24.5 kmh 24.66 in835.1 mb 0.00 in0.0 mm 0.00 in/hr0.0 mm/hr 0.00 in0.0 mm
02:39 PM 52.3°F11.3°C 3.0°F-16.1°C 13% 9.0 mph SSW14.5 kmh SSW 16.3 mph26.2 kmh 24.66 in835.1 mb 0.00 in0.0 mm 0.00 in/hr0.0 mm/hr 0.00 in0.0 mm
02:44 PM 52.9°F11.6°C 3.4°F-15.9°C 13% 8.0 mph SSW12.9 kmh SSW 14.8 mph23.8 kmh 24.63 in834.1 mb 0.00 in0.0 mm 0.00 in/hr0.0 mm/hr 0.00 in0.0 mm
02:49 PM 52.5°F11.4°C 3.2°F-16.0°C 13% 8.0 mph SW12.9 kmh SW 13.4 mph21.6 kmh 24.63 in834.1 mb 0.00 in0.0 mm 0.00 in/hr0.0 mm/hr 0.00 in0.0 mm
02:54 PM 52.9°F11.6°C -5537.2°C - 9.0 mph SW14.5 kmh SW 15.9 mph25.6 kmh 24.63 in834.1 mb 0.00 in0.0 mm 0.00 in/hr0.0 mm/hr 0.00 in0.0 mm
02:59 PM 52.9°F11.6°C -5537.2°C - 9.0 mph SW14.5 kmh SW 15.4 mph24.8 kmh 24.66 in835.1 mb 0.00 in0.0 mm 0.00 in/hr0.0 mm/hr 0.00 in0.0 mm
03:04 PM 53.1°F11.7°C -5537.2°C - 9.0 mph SW14.5 kmh SW 14.8 mph23.8 kmh 24.66 in835.1 mb 0.00 in0.0 mm 0.00 in/hr0.0 mm/hr 0.00 in0.0 mm
03:09 PM 52.7°F11.5°C -5537.2°C - 9.0 mph SW14.5 kmh SW 12.1 mph19.5 kmh 24.66 in835.1 mb 0.00 in0.0 mm 0.00 in/hr0.0 mm/hr 0.00 in0.0 mm
03:14 PM 53.2°F11.8°C -5537.2°C - 9.0 mph SW14.5 kmh SW 14.8 mph23.8 kmh 24.66 in835.1 mb 0.00 in0.0 mm 0.00 in/hr0.0 mm/hr 0.00 in0.0 mm
03:19 PM 53.2°F11.8°C -5537.2°C - 9.0 mph SW14.5 kmh SW 13.0 mph20.9 kmh 24.66 in835.1 mb 0.00 in0.0 mm 0.00 in/hr0.0 mm/hr 0.00 in0.0 mm
03:24 PM 52.7°F11.5°C -5537.2°C - 8.0 mph SW12.9 kmh SW 12.1 mph19.5 kmh 24.66 in835.1 mb 0.00 in0.0 mm 0.00 in/hr0.0 mm/hr 0.00 in0.0 mm
03:29 PM 53.2°F11.8°C -5537.2°C - 7.0 mph WSW11.3 kmh WSW 10.5 mph16.9 kmh 24.66 in835.1 mb 0.00 in0.0 mm 0.00 in/hr0.0 mm/hr 0.00 in0.0 mm
03:34 PM 52.9°F11.6°C -5537.2°C - 6.0 mph WSW9.7 kmh WSW 10.5 mph16.9 kmh 24.66 in835.1 mb 0.00 in0.0 mm 0.00 in/hr0.0 mm/hr 0.00 in0.0 mm
03:40 PM 53.2°F11.8°C -5537.2°C - 6.0 mph WSW9.7 kmh WSW 9.6 mph15.4 kmh 24.66 in835.1 mb 0.00 in0.0 mm 0.00 in/hr0.0 mm/hr 0.00 in0.0 mm
03:45 PM 53.4°F11.9°C -5537.2°C - 5.0 mph WSW8.0 kmh WSW 8.3 mph13.4 kmh 24.63 in834.1 mb 0.00 in0.0 mm 0.00 in/hr0.0 mm/hr 0.00 in0.0 mm
03:50 PM 53.6°F12.0°C -5537.2°C - 5.0 mph WNW8.0 kmh WNW 8.7 mph14.0 kmh 24.63 in834.1 mb 0.00 in0.0 mm 0.00 in/hr0.0 mm/hr 0.00 in0.0 mm
03:55 PM 53.2°F11.8°C -5537.2°C - 7.0 mph NW11.3 kmh NW 11.2 mph18.0 kmh 24.63 in834.1 mb 0.00 in0.0 mm 0.00 in/hr0.0 mm/hr 0.00 in0.0 mm
04:00 PM 53.2°F11.8°C -5537.2°C - 7.0 mph NNW11.3 kmh NNW 12.1 mph19.5 kmh 24.63 in834.1 mb 0.00 in0.0 mm 0.00 in/hr0.0 mm/hr 0.00 in0.0 mm
04:05 PM 53.8°F12.1°C -5537.2°C - 6.0 mph NNW9.7 kmh NNW 7.8 mph12.6 kmh 24.63 in834.1 mb 0.00 in0.0 mm 0.00 in/hr0.0 mm/hr 0.00 in0.0 mm
04:10 PM 54.9°F12.7°C -5537.2°C - 7.0 mph NW11.3 kmh NW 16.3 mph26.2 kmh 24.63 in834.1 mb 0.00 in0.0 mm 0.00 in/hr0.0 mm/hr 0.00 in0.0 mm
04:15 PM 54.1°F12.3°C -5537.2°C - 10.0 mph WSW16.1 kmh WSW 19.9 mph32.0 kmh 24.63 in834.1 mb 0.00 in0.0 mm 0.00 in/hr0.0 mm/hr 0.00 in0.0 mm
04:20 PM 55.6°F13.1°C -5537.2°C - 11.0 mph WSW17.7 kmh WSW 15.9 mph25.6 kmh 24.63 in834.1 mb 0.00 in0.0 mm 0.00 in/hr0.0 mm/hr 0.00 in0.0 mm
04:25 PM 56.1°F13.4°C -5537.2°C - 9.0 mph SW14.5 kmh SW 13.0 mph20.9 kmh 24.63 in834.1 mb 0.00 in0.0 mm 0.00 in/hr0.0 mm/hr 0.00 in0.0 mm
04:30 PM 55.2°F12.9°C -5537.2°C - 8.0 mph SW12.9 kmh SW 12.5 mph20.1 kmh 24.63 in834.1 mb 0.00 in0.0 mm 0.00 in/hr0.0 mm/hr 0.00 in0.0 mm
04:35 PM 55.9°F13.3°C -5537.2°C - 8.0 mph WSW12.9 kmh WSW 13.0 mph20.9 kmh 24.63 in834.1 mb 0.00 in0.0 mm 0.00 in/hr0.0 mm/hr 0.00 in0.0 mm
04:40 PM 56.3°F13.5°C -5537.2°C - 8.0 mph W12.9 kmh W 15.2 mph24.5 kmh 24.63 in834.1 mb 0.00 in0.0 mm 0.00 in/hr0.0 mm/hr 0.00 in0.0 mm
04:45 PM 55.9°F13.3°C -5537.2°C - 8.0 mph W12.9 kmh W 14.8 mph23.8 kmh 24.63 in834.1 mb 0.00 in0.0 mm 0.00 in/hr0.0 mm/hr 0.00 in0.0 mm
04:51 PM 54.9°F12.7°C -5537.2°C - 10.0 mph WNW16.1 kmh WNW 21.5 mph34.6 kmh 24.63 in834.1 mb 0.00 in0.0 mm 0.00 in/hr0.0 mm/hr 0.00 in0.0 mm
04:56 PM 54.7°F12.6°C -5537.2°C - 11.0 mph W17.7 kmh W 14.3 mph23.0 kmh 24.63 in834.1 mb 0.00 in0.0 mm 0.00 in/hr0.0 mm/hr 0.00 in0.0 mm
05:01 PM 54.5°F12.5°C -5537.2°C - 8.0 mph W12.9 kmh W 13.0 mph20.9 kmh 24.63 in834.1 mb 0.00 in0.0 mm 0.00 in/hr0.0 mm/hr 0.00 in0.0 mm
05:06 PM 53.8°F12.1°C -5537.2°C - 9.0 mph W14.5 kmh W 14.3 mph23.0 kmh 24.63 in834.1 mb 0.00 in0.0 mm 0.00 in/hr0.0 mm/hr 0.00 in0.0 mm
05:11 PM 53.8°F12.1°C -5537.2°C - 10.0 mph WNW16.1 kmh WNW 15.9 mph25.6 kmh 24.63 in834.1 mb 0.00 in0.0 mm 0.00 in/hr0.0 mm/hr 0.00 in0.0 mm
05:16 PM 53.4°F11.9°C -5537.2°C - 10.0 mph NW16.1 kmh NW 13.9 mph22.4 kmh 24.63 in834.1 mb 0.00 in0.0 mm 0.00 in/hr0.0 mm/hr 0.00 in0.0 mm
05:21 PM 53.4°F11.9°C -5537.2°C - 9.0 mph NW14.5 kmh NW 13.0 mph20.9 kmh 24.63 in834.1 mb 0.00 in0.0 mm 0.00 in/hr0.0 mm/hr 0.00 in0.0 mm
05:26 PM 54.0°F12.2°C -5537.2°C - 8.0 mph NW12.9 kmh NW 12.5 mph20.1 kmh 24.63 in834.1 mb 0.00 in0.0 mm 0.00 in/hr0.0 mm/hr 0.00 in0.0 mm
05:31 PM 53.8°F12.1°C -5537.2°C - 9.0 mph NW14.5 kmh NW 15.9 mph25.6 kmh 24.63 in834.1 mb 0.00 in0.0 mm 0.00 in/hr0.0 mm/hr 0.00 in0.0 mm
05:36 PM 54.3°F12.4°C -5537.2°C - 10.0 mph NW16.1 kmh NW 13.4 mph21.6 kmh 24.63 in834.1 mb 0.00 in0.0 mm 0.00 in/hr0.0 mm/hr 0.00 in0.0 mm
05:51 PM 54.0°F12.2°C -5537.2°C - 8.0 mph NW12.9 kmh NW 13.0 mph20.9 kmh 24.63 in834.1 mb 0.00 in0.0 mm 0.00 in/hr0.0 mm/hr 0.00 in0.0 mm
05:56 PM 53.1°F11.7°C -5537.2°C - 9.0 mph NW14.5 kmh NW 15.2 mph24.5 kmh 24.66 in835.1 mb 0.00 in0.0 mm 0.00 in/hr0.0 mm/hr 0.00 in0.0 mm
06:01 PM 53.1°F11.7°C -5537.2°C - 10.0 mph NW16.1 kmh NW 14.3 mph23.0 kmh 24.66 in835.1 mb 0.00 in0.0 mm 0.00 in/hr0.0 mm/hr 0.00 in0.0 mm
06:06 PM 52.7°F11.5°C -5537.2°C - 10.0 mph NW16.1 kmh NW 14.3 mph23.0 kmh 24.66 in835.1 mb 0.00 in0.0 mm 0.00 in/hr0.0 mm/hr 0.00 in0.0 mm
06:11 PM 52.5°F11.4°C -0.4°F-18.0°C 11% 11.0 mph NW17.7 kmh NW 16.3 mph26.2 kmh 24.66 in835.1 mb 0.00 in0.0 mm 0.00 in/hr0.0 mm/hr 0.00 in0.0 mm
06:16 PM 52.7°F11.5°C -0.2°F-17.9°C 11% 12.0 mph NW19.3 kmh NW 16.3 mph26.2 kmh 24.66 in835.1 mb 0.00 in0.0 mm 0.00 in/hr0.0 mm/hr 0.00 in0.0 mm
06:21 PM 52.5°F11.4°C -5537.2°C - 12.0 mph NW19.3 kmh NW 15.9 mph25.6 kmh 24.66 in835.1 mb 0.00 in0.0 mm 0.00 in/hr0.0 mm/hr 0.00 in0.0 mm
06:26 PM 51.8°F11.0°C -0.9°F-18.3°C 11% 13.0 mph NW20.9 kmh NW 22.8 mph36.7 kmh 24.66 in835.1 mb 0.00 in0.0 mm 0.00 in/hr0.0 mm/hr 0.00 in0.0 mm
06:32 PM 52.0°F11.1°C -0.9°F-18.3°C 11% 14.0 mph NW22.5 kmh NW 22.4 mph36.0 kmh 24.66 in835.1 mb 0.00 in0.0 mm 0.00 in/hr0.0 mm/hr 0.00 in0.0 mm
06:37 PM 52.0°F11.1°C -0.9°F-18.3°C 11% 15.0 mph NW24.1 kmh NW 22.4 mph36.0 kmh 24.66 in835.1 mb 0.00 in0.0 mm 0.00 in/hr0.0 mm/hr 0.00 in0.0 mm
06:42 PM 51.4°F10.8°C -1.3°F-18.5°C 11% 15.0 mph NW24.1 kmh NW 26.6 mph42.8 kmh 24.66 in835.1 mb 0.00 in0.0 mm 0.00 in/hr0.0 mm/hr 0.00 in0.0 mm
06:47 PM 51.1°F10.6°C -1.5°F-18.6°C 11% 16.0 mph WNW25.7 kmh WNW 24.4 mph39.3 kmh 24.66 in835.1 mb 0.00 in0.0 mm 0.00 in/hr0.0 mm/hr 0.00 in0.0 mm
06:52 PM 50.5°F10.3°C -2.0°F-18.9°C 11% 13.0 mph W20.9 kmh W 20.1 mph32.3 kmh 24.66 in835.1 mb 0.00 in0.0 mm 0.00 in/hr0.0 mm/hr 0.00 in0.0 mm
06:57 PM 50.5°F10.3°C -2.0°F-18.9°C 11% 11.0 mph WSW17.7 kmh WSW 18.1 mph29.1 kmh 24.66 in835.1 mb 0.00 in0.0 mm 0.00 in/hr0.0 mm/hr 0.00 in0.0 mm
07:02 PM 50.2°F10.1°C -2.2°F-19.0°C 11% 12.0 mph WSW19.3 kmh WSW 21.9 mph35.2 kmh 24.66 in835.1 mb 0.00 in0.0 mm 0.00 in/hr0.0 mm/hr 0.00 in0.0 mm
07:07 PM 49.8°F9.9°C -2.6°F-19.2°C 11% 15.0 mph W24.1 kmh W 21.9 mph35.2 kmh 24.66 in835.1 mb 0.00 in0.0 mm 0.00 in/hr0.0 mm/hr 0.00 in0.0 mm
07:12 PM 49.8°F9.9°C -2.6°F-19.2°C 11% 12.0 mph W19.3 kmh W 13.0 mph20.9 kmh 24.69 in836.1 mb 0.00 in0.0 mm 0.00 in/hr0.0 mm/hr 0.00 in0.0 mm
07:17 PM 50.0°F10.0°C -2.4°F-19.1°C 11% 7.0 mph WSW11.3 kmh WSW 11.0 mph17.7 kmh 24.69 in836.1 mb 0.00 in0.0 mm 0.00 in/hr0.0 mm/hr 0.00 in0.0 mm
07:22 PM 49.8°F9.9°C -2.6°F-19.2°C 11% 9.0 mph WSW14.5 kmh WSW 18.1 mph29.1 kmh 24.69 in836.1 mb 0.00 in0.0 mm 0.00 in/hr0.0 mm/hr 0.00 in0.0 mm
07:28 PM 49.5°F9.7°C -2.7°F-19.3°C 11% 12.0 mph WSW19.3 kmh WSW 19.9 mph32.0 kmh 24.69 in836.1 mb 0.00 in0.0 mm 0.00 in/hr0.0 mm/hr 0.00 in0.0 mm
07:33 PM 49.1°F9.5°C -3.1°F-19.5°C 11% 11.0 mph WSW17.7 kmh WSW 21.0 mph33.8 kmh 24.69 in836.1 mb 0.00 in0.0 mm 0.00 in/hr0.0 mm/hr 0.00 in0.0 mm
07:38 PM 48.9°F9.4°C -3.3°F-19.6°C 11% 10.0 mph WSW16.1 kmh WSW 15.2 mph24.5 kmh 24.69 in836.1 mb 0.00 in0.0 mm 0.00 in/hr0.0 mm/hr 0.00 in0.0 mm
07:43 PM 49.1°F9.5°C -3.1°F-19.5°C 11% 10.0 mph SW16.1 kmh SW 16.3 mph26.2 kmh 24.69 in836.1 mb 0.00 in0.0 mm 0.00 in/hr0.0 mm/hr 0.00 in0.0 mm
07:48 PM 48.7°F9.3°C -3.5°F-19.7°C 11% 12.0 mph SW19.3 kmh SW 19.0 mph30.6 kmh 24.69 in836.1 mb 0.00 in0.0 mm 0.00 in/hr0.0 mm/hr 0.00 in0.0 mm
07:53 PM 48.6°F9.2°C -3.5°F-19.7°C 11% 12.0 mph SW19.3 kmh SW 16.8 mph27.0 kmh 24.69 in836.1 mb 0.00 in0.0 mm 0.00 in/hr0.0 mm/hr 0.00 in0.0 mm
07:58 PM 48.0°F8.9°C -4.0°F-20.0°C 11% 11.0 mph SW17.7 kmh SW 21.0 mph33.8 kmh 24.69 in836.1 mb 0.00 in0.0 mm 0.00 in/hr0.0 mm/hr 0.00 in0.0 mm
08:03 PM 47.8°F8.8°C -4.0°F-20.0°C 11% 13.0 mph SW20.9 kmh SW 25.7 mph41.4 kmh 24.69 in836.1 mb 0.00 in0.0 mm 0.00 in/hr0.0 mm/hr 0.00 in0.0 mm
08:08 PM 47.7°F8.7°C -4.2°F-20.1°C 11% 14.0 mph SW22.5 kmh SW 21.0 mph33.8 kmh 24.69 in836.1 mb 0.00 in0.0 mm 0.00 in/hr0.0 mm/hr 0.00 in0.0 mm
08:13 PM 47.5°F8.6°C -4.4°F-20.2°C 11% 13.0 mph SW20.9 kmh SW 19.0 mph30.6 kmh 24.69 in836.1 mb 0.00 in0.0 mm 0.00 in/hr0.0 mm/hr 0.00 in0.0 mm
08:18 PM 47.5°F8.6°C -4.4°F-20.2°C 11% 12.0 mph SW19.3 kmh SW 19.9 mph32.0 kmh 24.69 in836.1 mb 0.00 in0.0 mm 0.00 in/hr0.0 mm/hr 0.00 in0.0 mm
08:23 PM 47.3°F8.5°C -4.5°F-20.3°C 11% 14.0 mph SW22.5 kmh SW 24.4 mph39.3 kmh 24.69 in836.1 mb 0.00 in0.0 mm 0.00 in/hr0.0 mm/hr 0.00 in0.0 mm
08:28 PM 47.1°F8.4°C -2.9°F-19.4°C 12% 15.0 mph SW24.1 kmh SW 28.0 mph45.1 kmh 24.69 in836.1 mb 0.00 in0.0 mm 0.00 in/hr0.0 mm/hr 0.00 in0.0 mm
08:33 PM 46.8°F8.2°C 0.1°F-17.7°C 14% 14.0 mph SW22.5 kmh SW 19.9 mph32.0 kmh 24.69 in836.1 mb 0.00 in0.0 mm 0.00 in/hr0.0 mm/hr 0.00 in0.0 mm
08:38 PM 46.4°F8.0°C -0.2°F-17.9°C 14% 14.0 mph WSW22.5 kmh WSW 25.3 mph40.7 kmh 24.69 in836.1 mb 0.00 in0.0 mm 0.00 in/hr0.0 mm/hr 0.00 in0.0 mm
08:43 PM 46.2°F7.9°C 3.9°F-15.6°C 17% 16.0 mph WSW25.7 kmh WSW 25.7 mph41.4 kmh 24.69 in836.1 mb 0.00 in0.0 mm 0.00 in/hr0.0 mm/hr 0.00 in0.0 mm
08:48 PM 46.0°F7.8°C 6.1°F-14.4°C 19% 17.0 mph SW27.4 kmh SW 26.2 mph42.2 kmh 24.69 in836.1 mb 0.00 in0.0 mm 0.00 in/hr0.0 mm/hr 0.00 in0.0 mm
08:53 PM 45.9°F7.7°C 5.9°F-14.5°C 19% 14.0 mph SW22.5 kmh SW 20.1 mph32.3 kmh 24.69 in836.1 mb 0.00 in0.0 mm 0.00 in/hr0.0 mm/hr 0.00 in0.0 mm
08:58 PM 45.7°F7.6°C 9.0°F-12.8°C 22% 14.0 mph SW22.5 kmh SW 23.7 mph38.1 kmh 24.72 in837.1 mb 0.00 in0.0 mm 0.00 in/hr0.0 mm/hr 0.00 in0.0 mm
09:03 PM 45.5°F7.5°C 9.0°F-12.8°C 22% 16.0 mph SW25.7 kmh SW 21.9 mph35.2 kmh 24.72 in837.1 mb 0.00 in0.0 mm 0.00 in/hr0.0 mm/hr 0.00 in0.0 mm
09:08 PM 45.5°F7.5°C 11.7°F-11.3°C 25% 15.0 mph SW24.1 kmh SW 22.8 mph36.7 kmh 24.72 in837.1 mb 0.00 in0.0 mm 0.00 in/hr0.0 mm/hr 0.00 in0.0 mm
09:13 PM 45.5°F7.5°C 10.8°F-11.8°C 24% 14.0 mph SW22.5 kmh SW 21.9 mph35.2 kmh 24.72 in837.1 mb 0.00 in0.0 mm 0.00 in/hr0.0 mm/hr 0.00 in0.0 mm
09:18 PM 45.3°F7.4°C 11.7°F-11.3°C 25% 14.0 mph SW22.5 kmh SW 24.2 mph38.9 kmh 24.72 in837.1 mb 0.00 in0.0 mm 0.00 in/hr0.0 mm/hr 0.00 in0.0 mm
09:23 PM 45.3°F7.4°C 11.7°F-11.3°C 25% 14.0 mph SW22.5 kmh SW 22.4 mph36.0 kmh 24.72 in837.1 mb 0.00 in0.0 mm 0.00 in/hr0.0 mm/hr 0.00 in0.0 mm
09:28 PM 45.1°F7.3°C 13.1°F-10.5°C 27% 13.0 mph SW20.9 kmh SW 18.1 mph29.1 kmh 24.72 in837.1 mb 0.00 in0.0 mm 0.00 in/hr0.0 mm/hr 0.00 in0.0 mm
09:33 PM 45.1°F7.3°C 13.1°F-10.5°C 27% 13.0 mph SW20.9 kmh SW 18.6 mph29.9 kmh 24.72 in837.1 mb 0.00 in0.0 mm 0.00 in/hr0.0 mm/hr 0.00 in0.0 mm
09:39 PM 45.5°F7.5°C 11.7°F-11.3°C 25% 14.0 mph SW22.5 kmh SW 24.4 mph39.3 kmh 24.72 in837.1 mb 0.00 in0.0 mm 0.00 in/hr0.0 mm/hr 0.00 in0.0 mm
09:44 PM 45.5°F7.5°C 10.8°F-11.8°C 24% 15.0 mph SW24.1 kmh SW 23.3 mph37.5 kmh 24.72 in837.1 mb 0.00 in0.0 mm 0.00 in/hr0.0 mm/hr 0.00 in0.0 mm
09:49 PM 45.5°F7.5°C 9.0°F-12.8°C 22% 15.0 mph SW24.1 kmh SW 25.3 mph40.7 kmh 24.72 in837.1 mb 0.00 in0.0 mm 0.00 in/hr0.0 mm/hr 0.00 in0.0 mm
09:54 PM 45.5°F7.5°C 9.0°F-12.8°C 22% 16.0 mph SW25.7 kmh SW 23.7 mph38.1 kmh 24.72 in837.1 mb 0.00 in0.0 mm 0.00 in/hr0.0 mm/hr 0.00 in0.0 mm
09:59 PM 45.7°F7.6°C 9.0°F-12.8°C 22% 17.0 mph SW27.4 kmh SW 24.8 mph39.9 kmh 24.75 in838.1 mb 0.00 in0.0 mm 0.00 in/hr0.0 mm/hr 0.00 in0.0 mm
10:04 PM 45.7°F7.6°C 9.0°F-12.8°C 22% 17.0 mph SW27.4 kmh SW 25.3 mph40.7 kmh 24.75 in838.1 mb 0.00 in0.0 mm 0.00 in/hr0.0 mm/hr 0.00 in0.0 mm
10:09 PM 45.9°F7.7°C 9.1°F-12.7°C 22% 15.0 mph SW24.1 kmh SW 21.5 mph34.6 kmh 24.75 in838.1 mb 0.00 in0.0 mm 0.00 in/hr0.0 mm/hr 0.00 in0.0 mm
10:14 PM 45.7°F7.6°C 9.0°F-12.8°C 22% 14.0 mph SW22.5 kmh SW 20.6 mph33.2 kmh 24.75 in838.1 mb 0.00 in0.0 mm 0.00 in/hr0.0 mm/hr 0.00 in0.0 mm
10:19 PM 45.5°F7.5°C 11.7°F-11.3°C 25% 13.0 mph SW20.9 kmh SW 19.5 mph31.4 kmh 24.75 in838.1 mb 0.00 in0.0 mm 0.00 in/hr0.0 mm/hr 0.00 in0.0 mm
10:24 PM 45.5°F7.5°C 11.7°F-11.3°C 25% 14.0 mph SW22.5 kmh SW 24.2 mph38.9 kmh 24.75 in838.1 mb 0.00 in0.0 mm 0.00 in/hr0.0 mm/hr 0.00 in0.0 mm
10:29 PM 45.5°F7.5°C 11.7°F-11.3°C 25% 15.0 mph SW24.1 kmh SW 25.7 mph41.4 kmh 24.75 in838.1 mb 0.00 in0.0 mm 0.00 in/hr0.0 mm/hr 0.00 in0.0 mm
10:34 PM 45.5°F7.5°C 11.7°F-11.3°C 25% 16.0 mph SW25.7 kmh SW 23.7 mph38.1 kmh 24.75 in838.1 mb 0.00 in0.0 mm 0.00 in/hr0.0 mm/hr 0.00 in0.0 mm
10:39 PM 45.3°F7.4°C 11.7°F-11.3°C 25% 15.0 mph SW24.1 kmh SW 22.4 mph36.0 kmh 24.75 in838.1 mb 0.00 in0.0 mm 0.00 in/hr0.0 mm/hr 0.00 in0.0 mm
10:44 PM 45.3°F7.4°C 11.7°F-11.3°C 25% 15.0 mph SW24.1 kmh SW 33.3 mph53.6 kmh 24.75 in838.1 mb 0.00 in0.0 mm 0.00 in/hr0.0 mm/hr 0.00 in0.0 mm
10:49 PM 45.3°F7.4°C 11.7°F-11.3°C 25% 15.0 mph SW24.1 kmh SW 21.9 mph35.2 kmh 24.75 in838.1 mb 0.00 in0.0 mm 0.00 in/hr0.0 mm/hr 0.00 in0.0 mm
10:54 PM 45.3°F7.4°C 11.7°F-11.3°C 25% 16.0 mph SW25.7 kmh SW 25.3 mph40.7 kmh 24.75 in838.1 mb 0.00 in0.0 mm 0.00 in/hr0.0 mm/hr 0.00 in0.0 mm
10:59 PM 45.3°F7.4°C 11.7°F-11.3°C 25% 16.0 mph SW25.7 kmh SW 46.5 mph74.8 kmh 24.75 in838.1 mb 0.00 in0.0 mm 0.00 in/hr0.0 mm/hr 0.00 in0.0 mm
11:04 PM 45.3°F7.4°C 13.3°F-10.4°C 27% 15.0 mph SW24.1 kmh SW 50.1 mph80.6 kmh 24.75 in838.1 mb 0.00 in0.0 mm 0.00 in/hr0.0 mm/hr 0.00 in0.0 mm
11:09 PM 45.3°F7.4°C 13.3°F-10.4°C 27% 14.0 mph SW22.5 kmh SW 51.7 mph83.2 kmh 24.75 in838.1 mb 0.00 in0.0 mm 0.00 in/hr0.0 mm/hr 0.00 in0.0 mm
11:14 PM 45.3°F7.4°C 11.7°F-11.3°C 25% 14.0 mph SW22.5 kmh SW 25.7 mph41.4 kmh 24.75 in838.1 mb 0.00 in0.0 mm 0.00 in/hr0.0 mm/hr 0.00 in0.0 mm
11:19 PM 45.3°F7.4°C 11.7°F-11.3°C 25% 14.0 mph SW22.5 kmh SW 23.7 mph38.1 kmh 24.75 in838.1 mb 0.00 in0.0 mm 0.00 in/hr0.0 mm/hr 0.00 in0.0 mm
11:24 PM 45.3°F7.4°C 11.7°F-11.3°C 25% 13.0 mph SW20.9 kmh SW 23.3 mph37.5 kmh 24.75 in838.1 mb 0.00 in0.0 mm 0.00 in/hr0.0 mm/hr 0.00 in0.0 mm
11:29 PM 45.5°F7.5°C 11.7°F-11.3°C 25% 11.0 mph SW17.7 kmh SW 19.0 mph30.6 kmh 24.77 in838.8 mb 0.00 in0.0 mm 0.00 in/hr0.0 mm/hr 0.00 in0.0 mm
11:34 PM 45.3°F7.4°C 11.7°F-11.3°C 25% 10.0 mph SW16.1 kmh SW 17.2 mph27.7 kmh 24.77 in838.8 mb 0.00 in0.0 mm 0.00 in/hr0.0 mm/hr 0.00 in0.0 mm
11:39 PM 45.1°F7.3°C 14.0°F-10.0°C 28% 10.0 mph WSW16.1 kmh WSW 18.1 mph29.1 kmh 24.77 in838.8 mb 0.00 in0.0 mm 0.00 in/hr0.0 mm/hr 0.00 in0.0 mm
11:44 PM 45.0°F7.2°C 13.8°F-10.1°C 28% 11.0 mph WSW17.7 kmh WSW 19.5 mph31.4 kmh 24.77 in838.8 mb 0.00 in0.0 mm 0.00 in/hr0.0 mm/hr 0.00 in0.0 mm
11:49 PM 44.8°F7.1°C 13.6°F-10.2°C 28% 11.0 mph SW17.7 kmh SW 16.3 mph26.2 kmh 24.77 in838.8 mb 0.00 in0.0 mm 0.00 in/hr0.0 mm/hr 0.00 in0.0 mm
11:54 PM 44.8°F7.1°C 13.6°F-10.2°C 28% 10.0 mph SW16.1 kmh SW 36.0 mph57.9 kmh 24.77 in838.8 mb 0.00 in0.0 mm 0.00 in/hr0.0 mm/hr 0.00 in0.0 mm
11:59 PM 45.0°F7.2°C 13.8°F-10.1°C 28% 10.0 mph SW16.1 kmh SW 33.3 mph53.6 kmh 24.77 in838.8 mb 0.00 in0.0 mm 0.00 in/hr0.0 mm/hr 0.00 in0.0 mm